Aeroporto :
LOGIN :

Iscrizione | Disclaimer

   EN    FR    IT 

 










Sommario :    VFR   VFR Marginale   IFR   IFR Intensivo   IFR Molto Intensivo
Visibilità : 
Base nubi : 
>= 8 km
>= 3000ft
5 / 8 km
1000 / 3000 ft
1500m / 5 km
500 / 1000 ft
800 / 1500m
200 / 500 ft
< 800m
< 200 ft
Simboli :   Temporali  Nebbia  Neve Forte  Precipitazioni Forti  Vento > 20 kt
SIGMETs :   Varie  Temporali  Ghiacco  Turbolenza  Onda orograficha  Ceneri Vulcaniche






- Altitudine del aeroporto : 68 ft
- Codice IATA : AGH


ESTA - Ängelholm-Helsingborg

ULTIMO METAR :
  • 110650Z 21013KT 6000 -RA BKN006 OVC009 04/03 Q1004 RERA

METARs OBSOLETI :
  • 110620Z 21013KT 3200 -RA BKN005 OVC009 04/03 Q1004 REDZ
  • 110550Z 21015KT 7000 DZ SCT005 OVC009 04/03 Q1004
  • 110520Z 21016KT 9999 BKN008 OVC012 04/03 Q1004
  • 110450Z AUTO 21017KT 9000 OVC007/// 04/02 Q1004
  • 110420Z AUTO 21017KT 7000 BR OVC006/// 03/02 Q1005

TAF TAF ESTA
Valido dal 11 a 06 ore il 11 a 15 ore UTC


110503Z 1106/1115 20010KT 7000 BKN015
TEMPO 1106/1108 20015G25KT 4000 RADZ BKN005
TEMPO 1108/1115 2500 RADZ BR BKN005



MetMap, La meteo Aeronautica in un colpo d'occhio ! - Copyright ORBIFLY Dicembre 2007 - Disclaimer

ORBIFLY MET'MAP TEAM :

Programmazione e sviluppo : Alexandra Zaïnal
Concezione : Baudouin d'Aumeries
Aiuto per la programmazione : Marc-Olivier Méhu
Supporto tecnico e logistico : Manuel Goepfert
Aiuto per la traduzione : Arnaldo La Scala

Contatto : metmap@orbifly.com




FONTI E CREDITI :

   NOAA